Time;durP1;ratioP1;P1;durP2;ratioP2;P2;SDS_P1;SDS_P2;PMS_P1;PMS_P2;Temp;Humidity;BMP_temperature;BMP_pressure;BME280_temperature;BME280_humidity;BME280_pressure;Samples;Min_cycle;Max_cycle;Signal;HPM_P1;HPM_P2
2022/12/26 00:00:33;;;;;;;;;;;21.90;38.20;;;;;;499815;237;1727;-43
2022/12/26 00:02:34;;;;;;;;;;;21.90;38.20;;;;;;499855;237;2285;-43
2022/12/26 00:04:36;;;;;;;;;;;21.80;38.30;;;;;;499803;237;1940;-44
2022/12/26 00:06:37;;;;;;;;;;;21.80;38.40;;;;;;499847;237;1847;-43
2022/12/26 00:08:38;;;;;;;;;;;21.80;38.40;;;;;;499899;238;1846;-44
2022/12/26 00:10:40;;;;;;;;;;;21.80;38.40;;;;;;499806;237;2289;-44
2022/12/26 00:12:41;;;;;;;;;;;21.80;38.40;;;;;;499871;237;2244;-42
2022/12/26 00:14:42;;;;;;;;;;;21.80;38.40;;;;;;499798;237;1750;-44
2022/12/26 00:16:44;;;;;;;;;;;21.80;38.40;;;;;;499972;237;1848;-43
2022/12/26 00:18:45;;;;;;;;;;;21.80;38.40;;;;;;499899;237;1866;-43
2022/12/26 00:20:47;;;;;;;;;;;21.80;38.40;;;;;;499906;237;2406;-43
2022/12/26 00:22:49;;;;;;;;;;;21.80;38.50;;;;;;499859;237;1657;-43
2022/12/26 00:24:50;;;;;;;;;;;21.80;38.40;;;;;;499844;237;1594;-40
2022/12/26 00:26:53;;;;;;;;;;;21.80;38.40;;;;;;499863;237;2094;-43
2022/12/26 00:28:54;;;;;;;;;;;21.80;38.40;;;;;;499911;237;2061;-44
2022/12/26 00:30:56;;;;;;;;;;;21.70;38.40;;;;;;499933;237;2200;-43
2022/12/26 00:32:57;;;;;;;;;;;21.70;38.40;;;;;;499954;237;2376;-44
2022/12/26 00:34:59;;;;;;;;;;;21.70;38.40;;;;;;499980;237;3114;-41
2022/12/26 00:37:00;;;;;;;;;;;21.80;38.40;;;;;;500009;237;2074;-44
2022/12/26 00:39:01;;;;;;;;;;;21.80;38.20;;;;;;500117;237;2300;-44
2022/12/26 00:41:03;;;;;;;;;;;21.80;38.30;;;;;;500065;237;1877;-43
2022/12/26 00:43:04;;;;;;;;;;;21.80;38.40;;;;;;500045;237;3163;-43
2022/12/26 00:45:05;;;;;;;;;;;21.80;38.30;;;;;;500101;237;1905;-44
2022/12/26 00:47:06;;;;;;;;;;;21.80;38.40;;;;;;500119;237;2104;-43
2022/12/26 00:49:08;;;;;;;;;;;21.80;38.40;;;;;;500105;237;2526;-44
2022/12/26 00:51:10;;;;;;;;;;;21.70;38.40;;;;;;500155;237;1816;-41
2022/12/26 00:53:11;;;;;;;;;;;21.80;38.40;;;;;;500142;237;2226;-43
2022/12/26 00:55:12;;;;;;;;;;;21.70;38.40;;;;;;500237;237;2020;-41
2022/12/26 00:57:14;;;;;;;;;;;21.80;38.40;;;;;;500190;237;2181;-39
2022/12/26 00:59:16;;;;;;;;;;;21.80;38.40;;;;;;500213;237;1692;-43
2022/12/26 01:01:17;;;;;;;;;;;21.70;38.40;;;;;;500226;237;1994;-43
2022/12/26 01:03:18;;;;;;;;;;;21.70;38.40;;;;;;500254;237;1914;-43
2022/12/26 01:05:20;;;;;;;;;;;21.70;38.40;;;;;;500264;237;1979;-43
2022/12/26 01:07:22;;;;;;;;;;;21.70;38.30;;;;;;500191;237;2100;-43
2022/12/26 01:09:23;;;;;;;;;;;21.70;38.50;;;;;;500293;237;1968;-41
2022/12/26 01:11:39;;;;;;;;;;;21.70;38.50;;;;;;500140;237;2333;-44
2022/12/26 01:13:42;;;;;;;;;;;21.70;38.40;;;;;;500182;237;2482;-41
2022/12/26 01:15:44;;;;;;;;;;;21.80;38.40;;;;;;500206;237;2241;-43
2022/12/26 01:17:45;;;;;;;;;;;21.80;38.40;;;;;;500227;237;2577;-43
2022/12/26 01:19:47;;;;;;;;;;;21.90;38.20;;;;;;500123;237;2003;-44
2022/12/26 01:21:49;;;;;;;;;;;22.10;37.90;;;;;;500242;237;2327;-40
2022/12/26 01:23:50;;;;;;;;;;;22.20;37.50;;;;;;500153;237;2090;-44
2022/12/26 01:25:51;;;;;;;;;;;22.30;37.40;;;;;;500362;237;1951;-43
2022/12/26 01:27:53;;;;;;;;;;;22.20;37.50;;;;;;500276;237;2209;-43
2022/12/26 01:29:58;;;;;;;;;;;22.10;37.70;;;;;;500290;237;1905;-43
2022/12/26 01:31:59;;;;;;;;;;;22.00;37.80;;;;;;500395;237;2452;-41
2022/12/26 01:34:01;;;;;;;;;;;22.00;37.90;;;;;;500285;237;2806;-43
2022/12/26 01:36:02;;;;;;;;;;;22.00;38.00;;;;;;500202;237;1729;-44
2022/12/26 01:38:03;;;;;;;;;;;21.90;38.00;;;;;;500464;237;1993;-44
2022/12/26 01:40:05;;;;;;;;;;;21.90;38.10;;;;;;500302;237;2490;-43
2022/12/26 01:42:07;;;;;;;;;;;21.90;38.10;;;;;;500264;237;2028;-42
2022/12/26 01:44:08;;;;;;;;;;;21.80;38.20;;;;;;500279;237;2200;-43
2022/12/26 01:46:10;;;;;;;;;;;21.80;38.20;;;;;;500215;237;1878;-42
2022/12/26 01:48:14;;;;;;;;;;;21.80;38.30;;;;;;500290;237;2031;-41
2022/12/26 01:50:15;;;;;;;;;;;21.70;38.30;;;;;;500350;237;2294;-44
2022/12/26 01:52:17;;;;;;;;;;;21.70;38.40;;;;;;500291;237;2446;-43
2022/12/26 01:54:18;;;;;;;;;;;21.60;38.40;;;;;;500179;237;2270;-43
2022/12/26 01:56:20;;;;;;;;;;;21.60;38.50;;;;;;500074;237;2016;-43
2022/12/26 01:58:24;;;;;;;;;;;21.80;38.30;;;;;;500060;237;1723;-44
2022/12/26 02:00:26;;;;;;;;;;;22.00;37.90;;;;;;500155;237;3325;-43
2022/12/26 02:02:27;;;;;;;;;;;22.20;37.60;;;;;;500139;237;2808;-40
2022/12/26 02:06:48;;;;;;;;;;;22.50;37.10;;;;;;500166;238;2387;-43
2022/12/26 02:08:49;;;;;;;;;;;22.30;37.10;;;;;;500189;237;1665;-43
2022/12/26 02:10:51;;;;;;;;;;;22.20;37.40;;;;;;500135;237;2002;-43
2022/12/26 02:12:52;;;;;;;;;;;22.10;37.60;;;;;;500240;237;2187;-43
2022/12/26 02:14:53;;;;;;;;;;;22.00;37.90;;;;;;500368;237;3382;-43
2022/12/26 02:16:55;;;;;;;;;;;21.90;38.00;;;;;;500191;237;1960;-42
2022/12/26 02:18:56;;;;;;;;;;;21.80;38.10;;;;;;500341;237;2387;-41
2022/12/26 02:20:57;;;;;;;;;;;21.80;38.20;;;;;;500230;237;2140;-42
2022/12/26 02:22:59;;;;;;;;;;;21.70;38.30;;;;;;500203;237;1948;-41
2022/12/26 02:25:00;;;;;;;;;;;21.70;38.40;;;;;;500295;237;1936;-44
2022/12/26 02:27:02;;;;;;;;;;;21.70;38.40;;;;;;500034;237;1654;-43
2022/12/26 02:29:03;;;;;;;;;;;21.60;38.50;;;;;;500198;237;1809;-43
2022/12/26 02:31:05;;;;;;;;;;;21.60;38.60;;;;;;500151;237;2276;-43
2022/12/26 02:33:06;;;;;;;;;;;21.50;38.60;;;;;;500163;237;2184;-43
2022/12/26 02:35:08;;;;;;;;;;;21.50;38.70;;;;;;500132;237;3459;-44
2022/12/26 02:37:09;;;;;;;;;;;21.50;38.70;;;;;;499933;237;2682;-44
2022/12/26 02:39:10;;;;;;;;;;;21.50;38.70;;;;;;500296;237;1757;-40
2022/12/26 02:41:12;;;;;;;;;;;21.50;38.70;;;;;;500319;237;1918;-43
2022/12/26 02:43:14;;;;;;;;;;;21.40;38.70;;;;;;500405;237;1761;-43
2022/12/26 02:47:35;;;;;;;;;;;21.50;38.70;;;;;;500271;238;2009;-44
2022/12/26 03:13:09;;;;;;;;;;;21.50;38.60;;;;;;500337;237;1947;-43
2022/12/26 03:14:50;;;;;;;;;;;22.30;37.10;;;;;;500257;238;1899;-44
2022/12/26 03:19:15;;;;;;;;;;;22.30;37.30;;;;;;497462;238;1678;-42
2022/12/26 03:21:18;;;;;;;;;;;22.40;37.00;;;;;;500230;237;2197;-43
2022/12/26 03:23:19;;;;;;;;;;;22.30;37.10;;;;;;500288;237;1673;-44
2022/12/26 03:27:40;;;;;;;;;;;22.00;37.60;;;;;;500186;238;2541;-44
2022/12/26 03:32:02;;;;;;;;;;;21.80;38.10;;;;;;489367;238;2002;-44
2022/12/26 03:34:19;;;;;;;;;;;21.80;38.10;;;;;;500366;237;2117;-43
2022/12/26 03:36:20;;;;;;;;;;;21.70;38.20;;;;;;500308;237;1737;-44
2022/12/26 03:38:21;;;;;;;;;;;21.70;38.20;;;;;;500275;237;1717;-41
2022/12/26 04:20:12;;;;;;;;;;;21.60;38.30;;;;;;482583;247;2469;-43
2022/12/26 04:45:26;;;;;;;;;;;21.50;38.60;;;;;;500148;238;2482;-40
2022/12/26 04:47:28;;;;;;;;;;;21.50;38.50;;;;;;500160;237;2591;-43
2022/12/26 04:51:49;;;;;;;;;;;21.50;38.50;;;;;;499815;238;2223;-44
2022/12/26 04:53:51;;;;;;;;;;;21.50;38.50;;;;;;500135;237;2175;-41
2022/12/26 04:55:53;;;;;;;;;;;21.50;38.40;;;;;;500019;237;2690;-42
2022/12/26 04:57:54;;;;;;;;;;;21.50;38.40;;;;;;500099;237;2023;-43
2022/12/26 04:59:56;;;;;;;;;;;21.50;38.40;;;;;;500150;237;1903;-43
2022/12/26 05:11:15;;;;;;;;;;;21.50;38.50;;;;;;500256;238;2078;-40
2022/12/26 05:13:17;;;;;;;;;;;21.50;38.50;;;;;;500380;237;2155;-42
2022/12/26 05:15:18;;;;;;;;;;;21.50;38.40;;;;;;500450;237;1960;-43
2022/12/26 05:28:56;;;;;;;;;;;21.50;38.50;;;;;;500218;238;2028;-43
2022/12/26 05:30:57;;;;;;;;;;;21.50;38.50;;;;;;500184;237;2391;-43
2022/12/26 05:35:19;;;;;;;;;;;21.50;38.50;;;;;;500157;238;2135;-43
2022/12/26 05:37:20;;;;;;;;;;;21.50;38.50;;;;;;500201;237;2208;-39
2022/12/26 05:39:22;;;;;;;;;;;21.50;38.40;;;;;;500162;237;1873;-43
2022/12/26 05:41:24;;;;;;;;;;;21.50;38.50;;;;;;500070;237;2176;-43
2022/12/26 05:43:26;;;;;;;;;;;21.40;38.60;;;;;;500036;237;1823;-43
2022/12/26 05:45:28;;;;;;;;;;;21.40;38.60;;;;;;500035;237;2136;-43
2022/12/26 05:47:29;;;;;;;;;;;21.40;38.60;;;;;;500002;237;1813;-43
2022/12/26 05:49:31;;;;;;;;;;;21.40;38.60;;;;;;500061;237;2004;-40
2022/12/26 05:51:32;;;;;;;;;;;21.50;38.50;;;;;;500118;237;2207;-40
2022/12/26 05:53:34;;;;;;;;;;;21.40;38.50;;;;;;499997;237;2165;-40
2022/12/26 05:55:36;;;;;;;;;;;21.50;38.60;;;;;;500279;237;2376;-42
2022/12/26 05:57:38;;;;;;;;;;;21.40;38.50;;;;;;500276;237;1708;-41
2022/12/26 05:59:39;;;;;;;;;;;21.50;38.50;;;;;;500250;237;1889;-43
2022/12/26 06:01:40;;;;;;;;;;;21.40;38.50;;;;;;500037;237;2189;-43
2022/12/26 06:03:43;;;;;;;;;;;21.50;38.60;;;;;;500106;237;2919;-41
2022/12/26 06:05:44;;;;;;;;;;;21.40;38.60;;;;;;500220;237;2152;-43
2022/12/26 06:07:45;;;;;;;;;;;21.40;38.60;;;;;;500092;237;1702;-43
2022/12/26 06:09:47;;;;;;;;;;;21.50;38.60;;;;;;500136;237;2226;-43
2022/12/26 06:11:48;;;;;;;;;;;21.30;38.60;;;;;;500054;237;2032;-43
2022/12/26 06:13:50;;;;;;;;;;;21.30;38.60;;;;;;500147;237;2195;-40
2022/12/26 06:15:52;;;;;;;;;;;21.40;38.70;;;;;;499986;237;4097;-40
2022/12/26 06:17:53;;;;;;;;;;;21.30;38.60;;;;;;500050;237;1642;-43
2022/12/26 06:19:54;;;;;;;;;;;21.30;38.60;;;;;;500252;237;1996;-43
2022/12/26 06:21:56;;;;;;;;;;;21.30;38.60;;;;;;500185;237;2110;-40
2022/12/26 06:23:58;;;;;;;;;;;21.30;38.70;;;;;;500219;237;2154;-44
2022/12/26 06:25:59;;;;;;;;;;;21.30;38.70;;;;;;500247;237;1873;-43
2022/12/26 06:28:00;;;;;;;;;;;21.30;38.80;;;;;;500167;237;2393;-43
2022/12/26 06:30:02;;;;;;;;;;;21.30;38.80;;;;;;500278;237;2014;-43
2022/12/26 06:32:03;;;;;;;;;;;21.30;38.80;;;;;;500166;237;2133;-43
2022/12/26 06:34:05;;;;;;;;;;;21.30;38.70;;;;;;500192;237;2356;-43
2022/12/26 06:36:07;;;;;;;;;;;21.30;38.70;;;;;;500302;237;1932;-43
2022/12/26 06:38:09;;;;;;;;;;;21.30;38.80;;;;;;500151;237;2007;-43
2022/12/26 06:40:10;;;;;;;;;;;21.30;38.70;;;;;;500388;237;1964;-43
2022/12/26 06:42:12;;;;;;;;;;;21.30;38.70;;;;;;500292;237;1821;-40
2022/12/26 06:44:13;;;;;;;;;;;21.30;38.80;;;;;;500228;237;2537;-43
2022/12/26 06:46:15;;;;;;;;;;;21.30;38.80;;;;;;500210;237;2257;-42
2022/12/26 06:48:16;;;;;;;;;;;21.30;38.70;;;;;;500178;237;2014;-44
2022/12/26 06:50:18;;;;;;;;;;;21.30;38.60;;;;;;500277;237;2798;-42
2022/12/26 06:52:19;;;;;;;;;;;21.30;38.60;;;;;;500140;237;2480;-44
2022/12/26 06:54:21;;;;;;;;;;;21.30;38.60;;;;;;500273;237;2220;-44
2022/12/26 06:56:22;;;;;;;;;;;21.30;38.60;;;;;;500177;237;1908;-43
2022/12/26 06:58:24;;;;;;;;;;;21.30;38.70;;;;;;500225;237;1862;-43
2022/12/26 07:00:26;;;;;;;;;;;21.30;38.70;;;;;;500141;237;2580;-43
2022/12/26 07:02:28;;;;;;;;;;;21.30;38.70;;;;;;500192;237;1907;-44
2022/12/26 07:04:30;;;;;;;;;;;21.30;38.70;;;;;;500318;237;1902;-41
2022/12/26 07:06:31;;;;;;;;;;;21.30;38.70;;;;;;500185;237;1765;-44
2022/12/26 07:08:33;;;;;;;;;;;21.30;38.70;;;;;;500301;237;2904;-41
2022/12/26 07:10:34;;;;;;;;;;;21.30;38.70;;;;;;500391;237;2241;-43
2022/12/26 07:12:36;;;;;;;;;;;21.30;38.70;;;;;;500316;237;1603;-44
2022/12/26 07:14:37;;;;;;;;;;;21.20;38.70;;;;;;500333;237;2147;-43
2022/12/26 07:16:39;;;;;;;;;;;21.20;38.70;;;;;;500422;237;2270;-40
2022/12/26 07:18:41;;;;;;;;;;;21.30;38.70;;;;;;500539;237;1788;-44
2022/12/26 07:20:43;;;;;;;;;;;21.30;38.60;;;;;;500244;237;2299;-43
2022/12/26 07:22:44;;;;;;;;;;;21.30;38.60;;;;;;500321;237;1943;-40
2022/12/26 07:24:46;;;;;;;;;;;21.30;38.60;;;;;;500137;237;2335;-43
2022/12/26 07:26:47;;;;;;;;;;;21.30;38.50;;;;;;500172;237;2092;-43
2022/12/26 07:28:49;;;;;;;;;;;21.40;38.50;;;;;;500141;237;1706;-41
2022/12/26 07:30:51;;;;;;;;;;;21.40;38.50;;;;;;500164;237;3131;-41
2022/12/26 07:32:52;;;;;;;;;;;21.40;38.40;;;;;;500178;237;1671;-42
2022/12/26 07:34:54;;;;;;;;;;;21.40;38.40;;;;;;500229;237;2180;-42
2022/12/26 07:36:56;;;;;;;;;;;21.40;38.30;;;;;;500157;237;1781;-43
2022/12/26 07:38:57;;;;;;;;;;;21.40;38.30;;;;;;500084;237;2359;-42
2022/12/26 07:41:56;;;;;;;;;;;21.40;38.40;;;;;;500220;237;2135;-43
2022/12/26 07:43:00;;;;;;;;;;;21.40;38.40;;;;;;498568;238;2474;-43
2022/12/26 07:45:01;;;;;;;;;;;21.40;38.40;;;;;;500246;237;1776;-43
2022/12/26 07:47:03;;;;;;;;;;;21.40;38.40;;;;;;500364;237;3909;-42
2022/12/26 07:49:05;;;;;;;;;;;21.40;38.50;;;;;;500159;238;2046;-42
2022/12/26 07:51:06;;;;;;;;;;;21.40;38.40;;;;;;500288;237;2489;-41
2022/12/26 07:53:08;;;;;;;;;;;21.40;38.40;;;;;;500233;237;1787;-43
2022/12/26 07:55:10;;;;;;;;;;;21.40;38.40;;;;;;500245;237;2128;-43
2022/12/26 07:57:11;;;;;;;;;;;21.40;38.40;;;;;;500139;237;2718;-43
2022/12/26 07:59:14;;;;;;;;;;;21.40;38.40;;;;;;500271;237;2258;-44
2022/12/26 08:01:15;;;;;;;;;;;21.40;38.30;;;;;;500160;237;2111;-43
2022/12/26 08:03:16;;;;;;;;;;;21.50;38.40;;;;;;500175;237;2023;-43
2022/12/26 08:05:19;;;;;;;;;;;21.40;38.30;;;;;;500211;237;2511;-41
2022/12/26 08:07:21;;;;;;;;;;;21.40;38.40;;;;;;500138;237;1800;-42
2022/12/26 08:09:22;;;;;;;;;;;21.30;38.40;;;;;;500238;237;1695;-44
2022/12/26 08:11:23;;;;;;;;;;;21.40;38.50;;;;;;500085;237;1943;-43
2022/12/26 08:13:25;;;;;;;;;;;21.30;38.40;;;;;;500302;237;1898;-42
2022/12/26 08:15:27;;;;;;;;;;;21.40;38.50;;;;;;500220;237;2517;-44
2022/12/26 08:17:31;;;;;;;;;;;21.40;38.50;;;;;;500443;237;1528;-43
2022/12/26 08:19:31;;;;;;;;;;;21.40;38.30;;;;;;500237;238;2157;-44
2022/12/26 08:21:32;;;;;;;;;;;21.40;38.30;;;;;;500427;237;2200;-43
2022/12/26 08:23:34;;;;;;;;;;;21.40;38.30;;;;;;500263;237;2041;-44
2022/12/26 08:25:35;;;;;;;;;;;21.40;38.20;;;;;;500331;237;2196;-43
2022/12/26 08:27:36;;;;;;;;;;;21.40;38.30;;;;;;500272;237;2408;-43
2022/12/26 08:29:38;;;;;;;;;;;21.50;38.20;;;;;;500216;237;1954;-43
2022/12/26 08:31:40;;;;;;;;;;;21.50;38.10;;;;;;500346;237;2026;-44
2022/12/26 08:33:41;;;;;;;;;;;21.50;38.10;;;;;;500219;237;2183;-43
2022/12/26 08:35:42;;;;;;;;;;;21.50;38.10;;;;;;500164;237;2063;-43
2022/12/26 08:37:44;;;;;;;;;;;21.50;38.10;;;;;;500124;237;1969;-44
2022/12/26 08:39:45;;;;;;;;;;;21.60;38.00;;;;;;500056;238;3183;-43
2022/12/26 08:41:46;;;;;;;;;;;21.60;38.00;;;;;;500197;237;2014;-44
2022/12/26 08:43:48;;;;;;;;;;;21.60;37.90;;;;;;500295;237;2509;-43
2022/12/26 08:45:50;;;;;;;;;;;21.70;37.80;;;;;;500178;237;1819;-43
2022/12/26 08:47:51;;;;;;;;;;;21.70;37.90;;;;;;500327;237;1903;-43
2022/12/26 08:49:53;;;;;;;;;;;21.70;37.90;;;;;;500429;237;2425;-41
2022/12/26 08:51:54;;;;;;;;;;;21.60;37.90;;;;;;500232;237;1961;-43
2022/12/26 08:53:56;;;;;;;;;;;21.60;37.90;;;;;;500321;237;2172;-43
2022/12/26 08:55:58;;;;;;;;;;;21.60;37.90;;;;;;500295;237;2058;-43
2022/12/26 08:57:59;;;;;;;;;;;21.60;37.90;;;;;;500316;237;1719;-43
2022/12/26 09:00:01;;;;;;;;;;;21.60;38.00;;;;;;500306;237;1936;-43
2022/12/26 09:02:03;;;;;;;;;;;21.60;38.00;;;;;;500245;237;2184;-43
2022/12/26 09:04:05;;;;;;;;;;;21.80;37.90;;;;;;500304;237;3061;-43
2022/12/26 09:06:07;;;;;;;;;;;21.90;37.50;;;;;;500279;237;1832;-44
2022/12/26 09:08:08;;;;;;;;;;;22.10;37.30;;;;;;500298;237;1916;-43
2022/12/26 09:10:09;;;;;;;;;;;22.20;37.00;;;;;;500240;237;2075;-42
2022/12/26 09:12:11;;;;;;;;;;;22.40;36.80;;;;;;500404;237;2650;-41
2022/12/26 09:14:12;;;;;;;;;;;22.50;36.60;;;;;;500339;237;2172;-41
2022/12/26 09:16:14;;;;;;;;;;;22.50;36.60;;;;;;500394;237;2344;-41
2022/12/26 09:18:15;;;;;;;;;;;22.40;36.60;;;;;;500236;237;1781;-43
2022/12/26 09:20:17;;;;;;;;;;;22.20;36.90;;;;;;500404;237;2219;-40
2022/12/26 09:24:37;;;;;;;;;;;22.10;37.20;;;;;;500185;238;1908;-43
2022/12/26 09:26:40;;;;;;;;;;;22.00;37.30;;;;;;500158;237;2020;-43
2022/12/26 09:28:41;;;;;;;;;;;22.00;37.40;;;;;;500368;237;1890;-43
2022/12/26 09:30:43;;;;;;;;;;;21.90;37.50;;;;;;500139;237;1824;-42
2022/12/26 09:32:44;;;;;;;;;;;21.90;37.60;;;;;;500077;237;1968;-40
2022/12/26 09:34:46;;;;;;;;;;;21.90;37.70;;;;;;500094;237;2978;-43
2022/12/26 09:36:47;;;;;;;;;;;21.80;37.70;;;;;;500133;237;1795;-42
2022/12/26 09:38:48;;;;;;;;;;;21.80;37.80;;;;;;500203;237;2086;-43
2022/12/26 09:40:50;;;;;;;;;;;21.80;37.80;;;;;;500233;237;2117;-43
2022/12/26 09:42:51;;;;;;;;;;;21.70;37.90;;;;;;500110;237;1943;-40
2022/12/26 09:44:53;;;;;;;;;;;21.70;38.00;;;;;;500277;237;1909;-43
2022/12/26 09:46:54;;;;;;;;;;;21.60;38.00;;;;;;500206;237;1714;-44
2022/12/26 09:48:56;;;;;;;;;;;21.60;38.10;;;;;;500268;237;1946;-43
2022/12/26 09:50:57;;;;;;;;;;;21.60;38.20;;;;;;500253;237;1767;-43
2022/12/26 09:52:58;;;;;;;;;;;21.60;38.20;;;;;;500250;237;2090;-43
2022/12/26 09:55:00;;;;;;;;;;;21.60;38.20;;;;;;500170;237;2156;-43
2022/12/26 09:57:02;;;;;;;;;;;21.60;38.10;;;;;;499960;237;3062;-43
2022/12/26 09:59:03;;;;;;;;;;;21.60;38.10;;;;;;500188;237;1685;-43
2022/12/26 10:01:05;;;;;;;;;;;21.60;38.20;;;;;;500120;237;1825;-43
2022/12/26 10:03:07;;;;;;;;;;;21.60;38.10;;;;;;500194;237;2919;-43
2022/12/26 10:05:08;;;;;;;;;;;21.70;38.10;;;;;;500309;237;2185;-43
2022/12/26 10:07:09;;;;;;;;;;;21.60;38.10;;;;;;500361;237;1950;-43
2022/12/26 10:09:11;;;;;;;;;;;21.60;38.00;;;;;;500269;237;1666;-44
2022/12/26 10:11:12;;;;;;;;;;;21.70;38.10;;;;;;500230;237;1725;-43
2022/12/26 10:13:13;;;;;;;;;;;21.60;38.00;;;;;;500399;237;2284;-43
2022/12/26 10:15:15;;;;;;;;;;;21.70;38.10;;;;;;500242;237;2136;-40
2022/12/26 10:17:16;;;;;;;;;;;21.60;38.10;;;;;;500336;237;2166;-43
2022/12/26 10:19:18;;;;;;;;;;;21.60;38.20;;;;;;500291;237;2350;-42
2022/12/26 10:21:19;;;;;;;;;;;21.70;38.20;;;;;;500218;237;2428;-43
2022/12/26 10:23:21;;;;;;;;;;;21.60;38.20;;;;;;500137;237;2081;-43
2022/12/26 10:25:23;;;;;;;;;;;21.50;38.20;;;;;;500183;237;1841;-40
2022/12/26 10:27:24;;;;;;;;;;;21.50;38.30;;;;;;500104;237;2597;-43
2022/12/26 10:29:26;;;;;;;;;;;21.50;38.40;;;;;;500091;238;2991;-43
2022/12/26 10:31:27;;;;;;;;;;;21.50;38.40;;;;;;500395;237;2099;-43
2022/12/26 10:33:29;;;;;;;;;;;21.50;38.50;;;;;;500123;237;1731;-43
2022/12/26 10:35:30;;;;;;;;;;;21.50;38.50;;;;;;500055;237;2388;-42
2022/12/26 10:37:32;;;;;;;;;;;21.40;38.40;;;;;;500041;237;2060;-42
2022/12/26 10:39:34;;;;;;;;;;;21.50;38.50;;;;;;500117;237;2271;-43
2022/12/26 10:41:35;;;;;;;;;;;21.40;38.50;;;;;;500095;237;2131;-40
2022/12/26 10:43:37;;;;;;;;;;;21.40;38.60;;;;;;499997;237;2056;-43
2022/12/26 10:45:38;;;;;;;;;;;21.40;38.60;;;;;;500056;237;2245;-43
2022/12/26 10:47:39;;;;;;;;;;;21.40;38.60;;;;;;500052;237;2226;-43
2022/12/26 10:49:41;;;;;;;;;;;21.30;38.60;;;;;;500165;237;1707;-44
2022/12/26 10:51:43;;;;;;;;;;;21.40;38.70;;;;;;500226;237;1726;-43
2022/12/26 10:53:44;;;;;;;;;;;21.30;38.60;;;;;;499884;238;2150;-42
2022/12/26 10:55:46;;;;;;;;;;;21.40;38.70;;;;;;500179;237;2137;-43
2022/12/26 10:57:47;;;;;;;;;;;21.40;38.60;;;;;;500125;237;2331;-43
2022/12/26 10:59:48;;;;;;;;;;;21.40;38.60;;;;;;500179;237;1861;-43
2022/12/26 11:01:50;;;;;;;;;;;21.50;38.50;;;;;;500392;237;1714;-43
2022/12/26 11:03:51;;;;;;;;;;;21.50;38.50;;;;;;500226;237;2995;-44
2022/12/26 11:05:53;;;;;;;;;;;21.50;38.50;;;;;;500407;237;1968;-44
2022/12/26 11:07:54;;;;;;;;;;;21.50;38.50;;;;;;500232;237;1959;-43
2022/12/26 11:09:57;;;;;;;;;;;21.50;38.50;;;;;;500319;237;2159;-43
2022/12/26 11:11:59;;;;;;;;;;;21.50;38.40;;;;;;500310;237;1890;-43
2022/12/26 11:14:03;;;;;;;;;;;21.50;38.40;;;;;;500269;237;2068;-44
2022/12/26 11:16:03;;;;;;;;;;;21.60;38.40;;;;;;500155;237;2176;-44
2022/12/26 11:18:05;;;;;;;;;;;21.60;38.40;;;;;;500257;237;2069;-43
2022/12/26 11:20:06;;;;;;;;;;;21.60;38.40;;;;;;500269;237;1987;-44
2022/12/26 11:22:08;;;;;;;;;;;21.50;38.30;;;;;;500415;237;1804;-43
2022/12/26 11:24:09;;;;;;;;;;;21.50;38.40;;;;;;500172;237;2004;-44
2022/12/26 11:26:11;;;;;;;;;;;21.50;38.50;;;;;;500231;237;1720;-40
2022/12/26 11:28:12;;;;;;;;;;;21.50;38.50;;;;;;500227;237;1791;-43
2022/12/26 11:30:14;;;;;;;;;;;21.50;38.50;;;;;;500182;237;1720;-43
2022/12/26 11:32:16;;;;;;;;;;;21.40;38.50;;;;;;500287;237;1687;-43
2022/12/26 11:34:17;;;;;;;;;;;21.50;38.50;;;;;;500202;237;1944;-43
2022/12/26 11:36:19;;;;;;;;;;;21.40;38.50;;;;;;500276;237;2137;-44
2022/12/26 11:38:36;;;;;;;;;;;21.40;38.60;;;;;;499792;238;1649;-44
2022/12/26 11:40:38;;;;;;;;;;;21.40;38.60;;;;;;500131;238;2225;-44
2022/12/26 11:42:39;;;;;;;;;;;21.40;38.60;;;;;;500176;237;1861;-40
2022/12/26 11:44:41;;;;;;;;;;;21.40;38.60;;;;;;500218;237;2004;-43
2022/12/26 11:46:42;;;;;;;;;;;21.40;38.60;;;;;;500211;237;1939;-43
2022/12/26 11:48:43;;;;;;;;;;;21.40;38.60;;;;;;500297;237;2458;-43
2022/12/26 11:50:45;;;;;;;;;;;21.40;38.60;;;;;;500334;237;1935;-43
2022/12/26 11:52:47;;;;;;;;;;;21.40;38.60;;;;;;500464;237;2061;-42
2022/12/26 11:54:48;;;;;;;;;;;21.40;38.60;;;;;;500268;237;2397;-43
2022/12/26 11:56:49;;;;;;;;;;;21.40;38.50;;;;;;500219;237;1816;-43
2022/12/26 11:58:51;;;;;;;;;;;21.50;38.50;;;;;;500215;237;1810;-43
2022/12/26 12:00:53;;;;;;;;;;;21.40;38.50;;;;;;500104;237;1942;-43
2022/12/26 12:02:54;;;;;;;;;;;21.50;38.50;;;;;;500176;237;1618;-40
2022/12/26 12:04:56;;;;;;;;;;;21.50;38.40;;;;;;500212;237;2324;-43
2022/12/26 12:06:59;;;;;;;;;;;21.60;38.40;;;;;;500268;237;2136;-43
2022/12/26 12:08:59;;;;;;;;;;;21.60;38.40;;;;;;500074;237;1790;-43
2022/12/26 12:11:00;;;;;;;;;;;21.60;38.40;;;;;;500161;237;2016;-40
2022/12/26 12:13:02;;;;;;;;;;;21.60;38.40;;;;;;500068;237;2627;-43
2022/12/26 12:15:03;;;;;;;;;;;21.60;38.40;;;;;;500184;237;2314;-43
2022/12/26 12:17:05;;;;;;;;;;;21.60;38.40;;;;;;500110;237;1995;-43
2022/12/26 12:19:06;;;;;;;;;;;21.60;38.40;;;;;;500093;237;1912;-43
2022/12/26 12:21:07;;;;;;;;;;;21.60;38.40;;;;;;500182;237;1701;-43
2022/12/26 12:23:09;;;;;;;;;;;21.60;38.40;;;;;;500239;237;1624;-43
2022/12/26 12:25:10;;;;;;;;;;;21.60;38.40;;;;;;500277;237;2364;-43
2022/12/26 12:27:11;;;;;;;;;;;21.60;38.50;;;;;;500124;237;1805;-43
2022/12/26 12:29:13;;;;;;;;;;;21.60;38.50;;;;;;500196;237;1889;-44
2022/12/26 12:31:14;;;;;;;;;;;21.60;38.50;;;;;;500204;237;2191;-44
2022/12/26 12:33:16;;;;;;;;;;;21.50;38.60;;;;;;500322;237;1869;-43
2022/12/26 12:35:17;;;;;;;;;;;21.50;38.70;;;;;;500211;237;2144;-42
2022/12/26 12:37:20;;;;;;;;;;;21.50;38.70;;;;;;500350;237;1915;-43
2022/12/26 12:39:21;;;;;;;;;;;21.40;38.80;;;;;;500344;237;2078;-40
2022/12/26 12:41:23;;;;;;;;;;;21.40;38.90;;;;;;500270;237;1988;-43
2022/12/26 12:43:24;;;;;;;;;;;21.40;38.90;;;;;;500300;237;1890;-41
2022/12/26 12:45:30;;;;;;;;;;;21.40;39.00;;;;;;500348;237;1959;-41
2022/12/26 12:47:29;;;;;;;;;;;21.30;39.00;;;;;;500064;238;1824;-42
2022/12/26 12:49:32;;;;;;;;;;;21.40;39.10;;;;;;500243;237;1832;-40
2022/12/26 12:51:34;;;;;;;;;;;21.40;39.00;;;;;;500265;237;1792;-43
2022/12/26 12:53:36;;;;;;;;;;;21.40;39.00;;;;;;500246;237;1984;-43
2022/12/26 12:55:38;;;;;;;;;;;21.40;39.10;;;;;;500313;237;2200;-43
2022/12/26 12:57:40;;;;;;;;;;;21.40;39.00;;;;;;500288;237;2498;-43
2022/12/26 12:59:42;;;;;;;;;;;21.50;39.00;;;;;;500283;238;2338;-43
2022/12/26 13:01:44;;;;;;;;;;;21.50;38.90;;;;;;500337;237;1939;-40
2022/12/26 13:03:45;;;;;;;;;;;21.50;38.90;;;;;;500445;237;1839;-43
2022/12/26 13:05:47;;;;;;;;;;;21.60;39.00;;;;;;500416;237;2233;-42
2022/12/26 13:07:48;;;;;;;;;;;21.50;39.00;;;;;;500385;237;1853;-43
2022/12/26 13:09:50;;;;;;;;;;;21.50;38.90;;;;;;500419;237;1837;-43
2022/12/26 13:11:51;;;;;;;;;;;21.60;39.00;;;;;;500386;237;2063;-43
2022/12/26 13:13:53;;;;;;;;;;;21.60;39.00;;;;;;500381;237;2154;-43
2022/12/26 13:15:54;;;;;;;;;;;21.60;38.90;;;;;;500254;237;2211;-43
2022/12/26 13:17:57;;;;;;;;;;;21.60;38.90;;;;;;500375;237;1905;-43
2022/12/26 13:19:58;;;;;;;;;;;21.60;38.90;;;;;;500088;237;1699;-43
2022/12/26 13:22:00;;;;;;;;;;;21.60;38.90;;;;;;500288;237;2653;-44
2022/12/26 13:26:21;;;;;;;;;;;21.60;38.90;;;;;;500188;238;2169;-41
2022/12/26 13:28:23;;;;;;;;;;;21.60;39.00;;;;;;500250;237;2066;-43
2022/12/26 13:30:24;;;;;;;;;;;21.60;39.00;;;;;;500055;237;1739;-44
2022/12/26 13:32:25;;;;;;;;;;;21.50;39.10;;;;;;500090;237;2397;-40
2022/12/26 13:34:27;;;;;;;;;;;21.50;39.20;;;;;;500153;237;2050;-43
2022/12/26 13:36:28;;;;;;;;;;;21.50;39.30;;;;;;500094;237;2204;-42
2022/12/26 13:38:30;;;;;;;;;;;21.50;39.30;;;;;;500147;237;2155;-42
2022/12/26 13:40:32;;;;;;;;;;;21.50;39.40;;;;;;500278;237;2053;-43
2022/12/26 13:44:53;;;;;;;;;;;21.50;39.40;;;;;;500174;238;1838;-43
2022/12/26 13:46:55;;;;;;;;;;;21.40;39.50;;;;;;499804;238;2119;-43
2022/12/26 13:48:56;;;;;;;;;;;21.40;39.50;;;;;;500176;237;1454;-43
2022/12/26 13:50:58;;;;;;;;;;;21.50;39.50;;;;;;500055;237;2964;-43
2022/12/26 13:53:00;;;;;;;;;;;21.50;39.40;;;;;;500210;237;1854;-44
2022/12/26 13:55:01;;;;;;;;;;;21.50;39.50;;;;;;500154;237;1756;-43
2022/12/26 13:57:03;;;;;;;;;;;21.50;39.50;;;;;;500233;237;2180;-41
2022/12/26 13:59:04;;;;;;;;;;;21.50;39.50;;;;;;500271;237;2613;-43
2022/12/26 14:01:06;;;;;;;;;;;21.50;39.50;;;;;;500243;237;1963;-42
2022/12/26 14:03:07;;;;;;;;;;;21.50;39.40;;;;;;500408;237;2008;-43
2022/12/26 14:05:08;;;;;;;;;;;21.50;39.40;;;;;;500391;237;2452;-43
2022/12/26 14:07:10;;;;;;;;;;;21.60;39.40;;;;;;500380;237;1909;-40
2022/12/26 14:09:12;;;;;;;;;;;21.50;39.40;;;;;;500237;237;1987;-43